Fuga — 3FGG3 — position and weather

sailwx.info

Track history (hours):
 
Tides and Currents Weather Stations Pressure Air Temp Water Temp Dewpoint Dewpoint Depression Visibility Wind Speed Wind Dir Waves Ship Positions

Fuga

Last reported at 2018-Jul-08 21:48 UTC. Time now 2018-Jul-17 22:56 UTC.
Position S 27°11' E 153°49'.
Warning: this ship's position is 9 days out of date.

Length 180 m; draft 9.6 m.

Type: Cargo ship. MMSI: 373680000.

Date/timePositionNaut miles runAvg speedWind from/ knotsBaromVisibWave heightAir tempDewpointWater temp
2018-Jul-08 21:48S 27°11' E 153°49'310.7
2018-Jul-08 21:29S 27°14' E 153°49'510.4
2018-Jul-08 20:58S 27°19' E 153°50'31611.2
2018-Jul-07 16:43S 32°30' E 152°48'412.3
2018-Jul-07 16:24S 32°34' E 152°45'512.5
2018-Jul-07 16:00S 32°38' E 152°42'612.7
2018-Jul-07 15:30S 32°43' E 152°38'612.7
2018-Jul-07 15:00S 32°48' E 152°33'612.6
2018-Jul-07 14:30S 32°53' E 152°29'612.4
2018-Jul-07 14:00S 32°58' E 152°24'612.1
2018-Jul-07 13:30S 33°03' E 152°20'612.1
2018-Jul-07 13:00S 33°08' E 152°16'611.8
2018-Jul-07 12:29S 33°13' E 152°12'3511.1
2018-Jul-07 09:19S 33°42' E 151°48'310.4
2018-Jul-07 09:00S 33°45' E 151°45'510.3
2018-Jul-07 08:30S 33°49' E 151°42'510.0
2018-Jul-07 08:00S 33°53' E 151°38'5 9.9
2018-Jul-07 07:30S 33°57' E 151°35'510.4
2018-Jul-07 07:00S 34°01' E 151°32'510.7
2018-Jul-07 06:30S 34°06' E 151°28'  
Track history (hours):
 
Tides and Currents Weather Stations Pressure Air Temp Water Temp Dewpoint Dewpoint Depression Visibility Wind Speed Wind Dir Waves Ship Positions

Fuga

Last reported at 2018-Jul-08 21:48 UTC. Time now 2018-Jul-17 22:56 UTC.
Position S 27°11' E 153°49'.
Warning: this ship's position is 9 days out of date.

Length 180 m; draft 9.6 m.

Type: Cargo ship. MMSI: 373680000.

Date/timePositionNaut miles runAvg speedWind from/ knotsBaromVisibWave heightAir tempDewpointWater temp
2018-Jul-08 21:48S 27°11' E 153°49'310.7
2018-Jul-08 21:29S 27°14' E 153°49'510.4
2018-Jul-08 20:58S 27°19' E 153°50'31611.2
2018-Jul-07 16:43S 32°30' E 152°48'412.3
2018-Jul-07 16:24S 32°34' E 152°45'512.5
2018-Jul-07 16:00S 32°38' E 152°42'612.7
2018-Jul-07 15:30S 32°43' E 152°38'612.7
2018-Jul-07 15:00S 32°48' E 152°33'612.6
2018-Jul-07 14:30S 32°53' E 152°29'612.4
2018-Jul-07 14:00S 32°58' E 152°24'612.1
2018-Jul-07 13:30S 33°03' E 152°20'612.1
2018-Jul-07 13:00S 33°08' E 152°16'611.8
2018-Jul-07 12:29S 33°13' E 152°12'3511.1
2018-Jul-07 09:19S 33°42' E 151°48'310.4
2018-Jul-07 09:00S 33°45' E 151°45'510.3
2018-Jul-07 08:30S 33°49' E 151°42'510.0
2018-Jul-07 08:00S 33°53' E 151°38'5 9.9
2018-Jul-07 07:30S 33°57' E 151°35'510.4
2018-Jul-07 07:00S 34°01' E 151°32'510.7
2018-Jul-07 06:30S 34°06' E 151°28'  

Dump ship's entire track history